createdAt,value
2019-04-03T00:00:04.724Z,19.30
2019-04-03T00:02:51.507Z,19.30
2019-04-03T00:05:35.476Z,19.30
2019-04-03T00:08:16.625Z,19.50
2019-04-03T00:10:58.576Z,19.50
2019-04-03T00:13:42.232Z,19.50
2019-04-03T00:16:24.967Z,19.50
2019-04-03T00:19:06.574Z,19.40
2019-04-03T00:21:48.776Z,19.70
2019-04-03T00:24:29.411Z,19.40
2019-04-03T00:27:12.020Z,19.30
2019-04-03T00:29:53.778Z,19.20
2019-04-03T00:32:37.450Z,19.20
2019-04-03T00:35:23.107Z,19.20
2019-04-03T00:38:05.835Z,19.10
2019-04-03T00:40:55.779Z,19.40
2019-04-03T00:43:38.010Z,19.30
2019-04-03T00:46:22.821Z,19.30
2019-04-03T00:49:06.347Z,19.30
2019-04-03T00:51:50.826Z,19.30
2019-04-03T00:54:37.354Z,19.40
2019-04-03T00:57:20.812Z,19.40
2019-04-03T01:00:06.442Z,19.70
2019-04-03T01:02:48.907Z,19.50
2019-04-03T01:05:29.115Z,19.40
2019-04-03T01:08:11.369Z,19.50
2019-04-03T01:10:53.222Z,19.40
2019-04-03T01:13:40.383Z,19.30
2019-04-03T01:16:23.477Z,19.40
2019-04-03T01:19:05.727Z,19.60
2019-04-03T01:21:47.923Z,19.50
2019-04-03T01:24:34.402Z,19.50
2019-04-03T01:27:31.459Z,19.50
2019-04-03T01:30:13.960Z,19.40
2019-04-03T01:32:57.404Z,19.50
2019-04-03T01:35:41.023Z,19.50
2019-04-03T01:38:30.525Z,19.60
2019-04-03T01:41:15.713Z,19.50
2019-04-03T01:44:00.802Z,19.60
2019-04-03T01:46:44.326Z,19.70
2019-04-03T01:49:29.603Z,19.70
2019-04-03T01:52:11.008Z,19.70
2019-04-03T01:54:59.802Z,19.70
2019-04-03T01:57:45.701Z,19.60
2019-04-03T02:00:25.860Z,19.60
2019-04-03T02:03:10.246Z,19.60
2019-04-03T02:05:51.720Z,19.50
2019-04-03T02:08:32.153Z,19.60
2019-04-03T02:11:19.196Z,19.60
2019-04-03T02:14:00.302Z,19.90
2019-04-03T02:16:56.326Z,19.80
2019-04-03T02:19:43.465Z,19.70
2019-04-03T02:22:25.596Z,19.70
2019-04-03T02:25:07.607Z,19.80
2019-04-03T02:27:52.321Z,19.70
2019-04-03T02:30:35.430Z,19.70
2019-04-03T02:33:23.020Z,19.70
2019-04-03T02:36:04.563Z,19.80
2019-04-03T02:38:51.525Z,19.80
2019-04-03T02:41:54.072Z,20.00
2019-04-03T02:44:39.755Z,19.90
2019-04-03T02:47:25.847Z,20.20
2019-04-03T02:50:13.246Z,20.20
2019-04-03T02:53:05.754Z,20.10
2019-04-03T02:55:49.567Z,20.30
2019-04-03T02:58:30.565Z,20.20
2019-04-03T03:01:14.664Z,20.20
2019-04-03T03:03:59.226Z,20.20
2019-04-03T03:06:54.890Z,20.30
2019-04-03T03:09:53.717Z,20.40
2019-04-03T03:12:42.274Z,20.40
2019-04-03T03:15:28.491Z,20.40
2019-04-03T03:18:24.505Z,20.40
2019-04-03T03:21:01.907Z,20.40
2019-04-03T03:23:48.176Z,20.30
2019-04-03T03:26:37.529Z,20.20
2019-04-03T03:29:19.222Z,20.30
2019-04-03T03:32:10.720Z,20.60
2019-04-03T03:35:02.040Z,20.50
2019-04-03T03:37:35.623Z,20.50
2019-04-03T03:40:21.612Z,20.40
2019-04-03T03:43:05.522Z,20.30
2019-04-03T03:45:52.572Z,20.30
2019-04-03T03:48:36.714Z,20.40
2019-04-03T03:51:25.523Z,20.40
2019-04-03T03:54:07.684Z,20.40
2019-04-03T03:57:04.320Z,20.40
2019-04-03T03:59:44.201Z,20.40
2019-04-03T04:02:28.303Z,20.40
2019-04-03T04:05:14.802Z,20.30
2019-04-03T04:07:59.341Z,20.60
2019-04-03T04:11:05.364Z,20.60
2019-04-03T04:13:52.951Z,20.80
2019-04-03T04:16:38.811Z,20.70
2019-04-03T04:19:21.504Z,21.00
2019-04-03T04:22:04.981Z,20.80
2019-04-03T04:27:56.273Z,20.90
2019-04-03T04:30:38.943Z,20.90
2019-04-03T04:33:21.948Z,21.30
2019-04-03T04:36:05.204Z,21.20
2019-04-03T04:38:57.959Z,21.20
2019-04-03T04:41:45.783Z,21.20
2019-04-03T04:44:32.043Z,21.20
2019-04-03T04:47:21.460Z,21.00
2019-04-03T04:50:17.760Z,21.10
2019-04-03T04:53:00.997Z,21.40
2019-04-03T04:55:56.172Z,21.20
2019-04-03T04:58:38.268Z,21.10
2019-04-03T05:01:39.675Z,21.10
2019-04-03T05:07:28.868Z,21.10
2019-04-03T05:10:12.217Z,21.00
2019-04-03T05:12:51.651Z,21.10
2019-04-03T05:15:39.943Z,21.10
2019-04-03T05:18:33.891Z,21.10
2019-04-03T05:21:17.721Z,21.10
2019-04-03T05:24:20.073Z,21.00
2019-04-03T05:27:14.823Z,20.90
2019-04-03T05:30:07.284Z,20.90
2019-04-03T05:32:50.587Z,20.90
2019-04-03T05:35:55.274Z,21.20
2019-04-03T05:47:47.790Z,21.10
2019-04-03T05:49:35.047Z,21.20
2019-04-03T05:52:23.926Z,21.10
2019-04-03T05:55:26.089Z,21.10
2019-04-03T05:58:15.335Z,21.30
2019-04-03T06:01:04.247Z,21.10
2019-04-03T06:03:47.250Z,21.10
2019-04-03T06:06:28.338Z,21.10
2019-04-03T06:09:09.739Z,21.10
2019-04-03T06:11:57.679Z,21.10
2019-04-03T06:14:52.904Z,21.10
2019-04-03T06:17:37.926Z,21.10
2019-04-03T06:20:22.836Z,21.20
2019-04-03T06:23:19.308Z,21.20
2019-04-03T06:26:02.119Z,21.20
2019-04-03T06:28:47.907Z,21.10
2019-04-03T06:31:58.319Z,21.10
2019-04-03T06:34:52.075Z,21.30
2019-04-03T06:37:44.887Z,21.40
2019-04-03T06:40:32.226Z,21.40
2019-04-03T06:43:18.899Z,21.20
2019-04-03T06:46:08.481Z,21.20
2019-04-03T06:48:55.085Z,21.10
2019-04-03T06:51:38.666Z,21.10
2019-04-03T06:54:23.633Z,21.10
2019-04-03T06:57:18.798Z,21.10
2019-04-03T06:59:59.420Z,21.00
2019-04-03T07:03:04.172Z,21.10
2019-04-03T07:05:47.555Z,21.40
2019-04-03T07:08:34.857Z,21.20
2019-04-03T07:11:23.763Z,21.10
2019-04-03T07:14:08.571Z,21.10
2019-04-03T07:17:05.403Z,21.10
2019-04-03T07:19:45.537Z,21.00
2019-04-03T07:22:41.193Z,21.00
2019-04-03T07:25:38.268Z,21.10
2019-04-03T07:28:21.257Z,21.20
2019-04-03T07:31:03.537Z,21.10
2019-04-03T07:33:45.193Z,21.10
2019-04-03T07:36:34.839Z,21.10
2019-04-03T07:39:14.221Z,21.10
2019-04-03T07:41:56.097Z,21.00
2019-04-03T07:44:44.901Z,21.00
2019-04-03T07:47:28.615Z,21.00
2019-04-03T07:50:12.101Z,21.00
2019-04-03T07:52:55.230Z,21.10
2019-04-03T07:55:40.202Z,21.10
2019-04-03T07:58:49.255Z,21.10
2019-04-03T08:01:19.190Z,21.10
2019-04-03T08:04:00.098Z,21.10
2019-04-03T08:06:41.051Z,21.00
2019-04-03T08:09:23.008Z,21.00
2019-04-03T08:12:04.442Z,21.10
2019-04-03T08:14:45.361Z,21.00
2019-04-03T08:17:31.391Z,21.10
2019-04-03T08:20:30.642Z,21.00
2019-04-03T08:23:18.925Z,21.00
2019-04-03T08:26:04.903Z,20.90
2019-04-03T08:28:47.494Z,20.90
2019-04-03T08:31:44.317Z,20.90
2019-04-03T08:34:31.227Z,20.90
2019-04-03T08:37:14.748Z,20.90
2019-04-03T08:40:03.665Z,20.90
2019-04-03T08:42:46.617Z,21.00
2019-04-03T08:45:24.913Z,20.90
2019-04-03T08:48:07.211Z,20.90
2019-04-03T08:50:52.775Z,21.00
2019-04-03T08:53:34.924Z,21.00
2019-04-03T08:56:17.125Z,20.90
2019-04-03T08:59:06.673Z,20.90
2019-04-03T09:01:50.718Z,20.90
2019-04-03T09:04:31.436Z,20.80
2019-04-03T09:07:14.940Z,20.70
2019-04-03T09:10:00.971Z,20.80
2019-04-03T09:12:43.203Z,20.80
2019-04-03T09:15:22.175Z,20.80
2019-04-03T09:21:16.054Z,20.70
2019-04-03T09:23:58.438Z,20.70
2019-04-03T09:26:58.891Z,20.70
2019-04-03T09:30:02.065Z,20.70
2019-04-03T09:32:59.610Z,20.90
2019-04-03T09:35:43.011Z,21.10
2019-04-03T09:45:27.615Z,20.90
2019-04-03T09:48:34.868Z,21.00
2019-04-03T09:57:43.506Z,20.70
2019-04-03T10:00:55.486Z,20.70
2019-04-03T10:03:56.308Z,21.00
2019-04-03T10:06:53.966Z,21.00
2019-04-03T10:15:51.242Z,20.80
2019-04-03T10:19:01.973Z,20.80
2019-04-03T10:25:10.847Z,20.70
2019-04-03T10:27:52.924Z,20.70
2019-04-03T10:37:26.901Z,20.80
2019-04-03T10:43:06.910Z,20.60
2019-04-03T10:46:07.283Z,20.50
2019-04-03T10:48:50.646Z,20.50
2019-04-03T10:54:47.180Z,20.60
2019-04-03T10:57:47.199Z,20.70
2019-04-03T11:03:48.818Z,20.70
2019-04-03T11:09:55.606Z,20.50
2019-04-03T11:19:10.383Z,20.30
2019-04-03T11:34:56.470Z,20.40
2019-04-03T11:37:57.531Z,20.40
2019-04-03T11:58:32.004Z,20.60
2019-04-03T12:04:35.952Z,20.40
2019-04-03T12:07:30.741Z,20.40
2019-04-03T12:13:59.848Z,20.50
2019-04-03T12:16:58.516Z,20.50
2019-04-03T12:23:52.824Z,20.30
2019-04-03T12:26:44.698Z,20.20
2019-04-03T12:29:26.392Z,20.20
2019-04-03T12:35:26.244Z,20.20
2019-04-03T12:45:18.231Z,20.20
2019-04-03T12:51:45.498Z,20.10
2019-04-03T12:54:52.936Z,20.10
2019-04-03T13:04:26.543Z,20.00
2019-04-03T13:08:21.000Z,20.00
2019-04-03T13:11:53.948Z,20.00
2019-04-03T13:20:52.081Z,19.90
2019-04-03T13:23:38.704Z,19.80
2019-04-03T13:26:33.026Z,19.90
2019-04-03T13:29:39.199Z,19.90
2019-04-03T13:32:38.275Z,20.30
2019-04-03T13:36:12.134Z,20.20
2019-04-03T13:45:46.131Z,20.00
2019-04-03T13:48:36.190Z,20.00
2019-04-03T13:51:44.534Z,20.00
2019-04-03T13:54:39.090Z,20.00
2019-04-03T13:58:15.515Z,20.00
2019-04-03T14:04:37.017Z,19.90
2019-04-03T14:10:43.994Z,19.80
2019-04-03T14:14:10.391Z,19.80
2019-04-03T14:20:47.363Z,20.10
2019-04-03T14:23:50.252Z,20.00
2019-04-03T14:30:27.904Z,20.20
2019-04-03T14:33:22.988Z,20.00
2019-04-03T14:36:13.582Z,19.90
2019-04-03T14:39:31.467Z,19.80
2019-04-03T14:42:48.606Z,19.80
2019-04-03T14:45:33.206Z,19.70
2019-04-03T14:48:49.284Z,19.70
2019-04-03T14:55:15.189Z,20.00
2019-04-03T14:57:55.828Z,19.80
2019-04-03T15:01:04.765Z,19.70
2019-04-03T15:04:09.023Z,19.60
2019-04-03T15:07:34.847Z,19.70
2019-04-03T15:13:33.182Z,19.40
2019-04-03T15:22:32.770Z,19.60
2019-04-03T15:25:36.512Z,19.40
2019-04-03T15:28:48.945Z,19.30
2019-04-03T15:31:53.527Z,19.20
2019-04-03T15:34:41.428Z,19.20
2019-04-03T15:37:47.183Z,19.20
2019-04-03T15:40:36.574Z,19.10
2019-04-03T15:43:25.891Z,19.00
2019-04-03T15:46:22.009Z,18.90
2019-04-03T15:49:32.859Z,18.90
2019-04-03T15:52:44.322Z,19.20
2019-04-03T15:59:10.250Z,19.00
2019-04-03T16:02:02.310Z,18.90
2019-04-03T16:05:05.358Z,19.00
2019-04-03T16:07:58.581Z,18.90
2019-04-03T16:10:58.817Z,18.80
2019-04-03T16:13:53.309Z,18.80
2019-04-03T16:17:10.261Z,18.80
2019-04-03T16:19:59.809Z,18.80
2019-04-03T16:22:42.867Z,19.20
2019-04-03T16:25:30.477Z,19.10
2019-04-03T16:28:14.150Z,19.00
2019-04-03T16:31:00.347Z,19.00
2019-04-03T16:34:09.452Z,18.90
2019-04-03T16:42:58.980Z,18.80
2019-04-03T16:45:41.998Z,18.80
2019-04-03T16:48:38.552Z,18.70
2019-04-03T16:51:33.368Z,18.80
2019-04-03T16:54:29.019Z,18.80
2019-04-03T16:57:33.340Z,18.80
2019-04-03T17:00:16.056Z,18.80
2019-04-03T17:03:00.843Z,18.80
2019-04-03T17:08:57.987Z,18.80
2019-04-03T17:14:54.789Z,18.80
2019-04-03T17:17:46.748Z,18.70
2019-04-03T17:20:44.013Z,18.70
2019-04-03T17:23:31.820Z,19.00
2019-04-03T17:26:09.306Z,18.90
2019-04-03T17:29:04.900Z,18.80
2019-04-03T17:31:40.558Z,18.80
2019-04-03T17:34:27.952Z,18.70
2019-04-03T17:37:14.227Z,18.70
2019-04-03T17:40:13.645Z,18.80
2019-04-03T17:43:18.646Z,18.80
2019-04-03T17:46:02.997Z,18.70
2019-04-03T17:48:44.676Z,18.70
2019-04-03T17:54:34.284Z,19.00
2019-04-03T17:57:27.095Z,18.80
2019-04-03T18:03:24.914Z,18.70
2019-04-03T18:06:06.429Z,18.70
2019-04-03T18:08:49.603Z,18.60
2019-04-03T18:11:29.409Z,18.60
2019-04-03T18:14:11.020Z,18.60
2019-04-03T18:19:54.255Z,18.60
2019-04-03T18:22:44.054Z,18.60
2019-04-03T18:28:24.605Z,18.60
2019-04-03T18:31:09.903Z,18.60
2019-04-03T18:33:54.171Z,18.60
2019-04-03T18:37:07.268Z,18.60
2019-04-03T18:39:51.526Z,18.50
2019-04-03T18:42:33.673Z,18.40
2019-04-03T18:45:24.662Z,18.50
2019-04-03T18:47:58.168Z,18.50
2019-04-03T18:50:53.208Z,18.50
2019-04-03T18:53:33.781Z,18.40
2019-04-03T18:56:13.775Z,18.50
2019-04-03T18:58:59.297Z,18.40
2019-04-03T19:01:40.924Z,18.40
2019-04-03T19:04:21.386Z,18.40
2019-04-03T19:07:06.525Z,18.40
2019-04-03T19:09:47.509Z,18.40
2019-04-03T19:12:35.767Z,18.40
2019-04-03T19:15:15.785Z,18.40
2019-04-03T19:18:00.398Z,18.40
2019-04-03T19:20:41.946Z,18.40
2019-04-03T19:23:23.658Z,18.30
2019-04-03T19:26:02.828Z,18.30
2019-04-03T19:28:44.493Z,18.30
2019-04-03T19:31:24.772Z,18.30
2019-04-03T19:34:03.983Z,18.30
2019-04-03T19:36:43.315Z,18.30
2019-04-03T19:39:26.893Z,18.30
2019-04-03T19:42:06.940Z,18.30
2019-04-03T19:44:49.202Z,18.30
2019-04-03T19:47:31.683Z,18.30
2019-04-03T19:50:14.811Z,18.30
2019-04-03T19:52:55.639Z,18.40
2019-04-03T19:55:35.263Z,18.30
2019-04-03T19:58:14.942Z,18.30
2019-04-03T20:00:59.584Z,18.40
2019-04-03T20:03:44.314Z,18.40
2019-04-03T20:06:26.701Z,18.40
2019-04-03T20:09:17.667Z,18.30
2019-04-03T20:11:59.075Z,18.30
2019-04-03T20:14:52.508Z,18.30
2019-04-03T20:17:25.910Z,18.30
2019-04-03T20:20:07.173Z,18.20
2019-04-03T20:22:47.499Z,18.20
2019-04-03T20:25:34.605Z,18.20
2019-04-03T20:28:14.871Z,18.20
2019-04-03T20:30:57.699Z,18.20
2019-04-03T20:33:42.089Z,18.30
2019-04-03T20:36:27.244Z,18.30
2019-04-03T20:39:08.676Z,18.40
2019-04-03T20:41:50.144Z,18.30
2019-04-03T20:44:34.876Z,18.30
2019-04-03T20:47:15.703Z,18.30
2019-04-03T20:49:59.743Z,18.30
2019-04-03T20:52:41.663Z,18.30
2019-04-03T20:55:25.432Z,18.30
2019-04-03T20:58:07.775Z,18.30
2019-04-03T21:00:49.506Z,18.30
2019-04-03T21:03:35.302Z,18.30
2019-04-03T21:06:16.485Z,18.30
2019-04-03T21:08:58.729Z,18.30
2019-04-03T21:11:36.635Z,18.10
2019-04-03T21:14:18.837Z,18.20
2019-04-03T21:17:00.378Z,18.20
2019-04-03T21:19:46.903Z,18.20
2019-04-03T21:22:30.561Z,18.10
2019-04-03T21:25:13.649Z,18.10
2019-04-03T21:27:56.754Z,18.10
2019-04-03T21:30:37.895Z,18.10
2019-04-03T21:33:20.071Z,18.10
2019-04-03T21:35:59.513Z,18.00
2019-04-03T21:38:42.282Z,18.00
2019-04-03T21:41:24.026Z,18.00
2019-04-03T21:44:06.852Z,18.00
2019-04-03T21:46:49.232Z,17.90
2019-04-03T21:49:34.344Z,17.90
2019-04-03T21:52:14.003Z,17.90
2019-04-03T21:54:54.353Z,17.80
2019-04-03T21:57:38.331Z,17.90
2019-04-03T22:00:25.128Z,17.90
2019-04-03T22:03:06.930Z,17.90
2019-04-03T22:05:56.211Z,17.80
2019-04-03T22:08:39.540Z,17.80
2019-04-03T22:11:20.190Z,17.80
2019-04-03T22:14:03.448Z,18.20
2019-04-03T22:16:44.985Z,18.10
2019-04-03T22:19:28.636Z,18.00
2019-04-03T22:22:11.287Z,17.90
2019-04-03T22:24:58.774Z,17.90
2019-04-03T22:27:42.881Z,17.90
2019-04-03T22:30:24.554Z,17.90
2019-04-03T22:33:11.908Z,17.80
2019-04-03T22:35:56.599Z,17.90
2019-04-03T22:38:42.193Z,17.90
2019-04-03T22:41:21.876Z,18.00
2019-04-03T22:44:02.576Z,18.00
2019-04-03T22:46:45.268Z,18.10
2019-04-03T22:49:26.848Z,18.10
2019-04-03T22:52:08.794Z,18.00
2019-04-03T22:54:52.487Z,17.90
2019-04-03T22:57:33.372Z,17.90
2019-04-03T23:00:12.454Z,17.80
2019-04-03T23:03:02.949Z,17.80
2019-04-03T23:05:42.296Z,17.80
2019-04-03T23:08:24.506Z,17.90
2019-04-03T23:11:05.064Z,17.90
2019-04-03T23:13:51.418Z,17.90
2019-04-03T23:16:33.321Z,17.80
2019-04-03T23:19:17.626Z,17.90
2019-04-03T23:22:04.588Z,18.00
2019-04-03T23:24:47.813Z,17.80
2019-04-03T23:27:32.631Z,18.10
2019-04-03T23:30:15.046Z,18.00
2019-04-03T23:32:56.184Z,18.00
2019-04-03T23:35:39.180Z,18.00
2019-04-03T23:38:22.777Z,18.00
2019-04-03T23:41:06.103Z,18.10
2019-04-03T23:43:48.346Z,18.00
2019-04-03T23:46:34.512Z,18.00
2019-04-03T23:49:16.081Z,18.00
2019-04-03T23:52:05.707Z,18.40
2019-04-03T23:54:49.087Z,18.30
2019-04-03T23:57:32.479Z,18.20
